sensor_id;sensor_type;location;lat;lon;timestamp;temperature;humidity
25512;DHT22;13414;44.534;18.700;2023-04-01T00:00:33;15.60;1.00
25512;DHT22;13414;44.534;18.700;2023-04-01T00:03:00;15.50;1.00
25512;DHT22;13414;44.534;18.700;2023-04-01T00:05:27;15.40;1.00
25512;DHT22;13414;44.534;18.700;2023-04-01T00:07:55;15.30;40.80
25512;DHT22;13414;44.534;18.700;2023-04-01T00:10:22;15.20;1.00
25512;DHT22;13414;44.534;18.700;2023-04-01T00:12:51;15.10;1.00
25512;DHT22;13414;44.534;18.700;2023-04-01T00:15:19;14.90;99.90
25512;DHT22;13414;44.534;18.700;2023-04-01T00:17:46;14.80;99.90
25512;DHT22;13414;44.534;18.700;2023-04-01T00:20:14;14.70;1.00
25512;DHT22;13414;44.534;18.700;2023-04-01T00:22:42;14.70;1.00
25512;DHT22;13414;44.534;18.700;2023-04-01T00:25:09;14.60;1.00
25512;DHT22;13414;44.534;18.700;2023-04-01T00:27:37;14.70;1.00
25512;DHT22;13414;44.534;18.700;2023-04-01T00:30:07;14.60;99.90
25512;DHT22;13414;44.534;18.700;2023-04-01T00:32:36;14.50;99.90
25512;DHT22;13414;44.534;18.700;2023-04-01T00:35:04;14.40;1.00
25512;DHT22;13414;44.534;18.700;2023-04-01T00:37:35;14.30;1.00
25512;DHT22;13414;44.534;18.700;2023-04-01T00:40:05;14.20;1.00
25512;DHT22;13414;44.534;18.700;2023-04-01T00:42:32;14.10;1.00
25512;DHT22;13414;44.534;18.700;2023-04-01T00:45:27;14.10;1.00
25512;DHT22;13414;44.534;18.700;2023-04-01T00:47:55;14.00;1.00
25512;DHT22;13414;44.534;18.700;2023-04-01T00:50:23;14.00;99.90
25512;DHT22;13414;44.534;18.700;2023-04-01T00:52:52;14.00;99.90
25512;DHT22;13414;44.534;18.700;2023-04-01T00:55:21;14.10;99.90
25512;DHT22;13414;44.534;18.700;2023-04-01T00:57:51;14.10;1.00
25512;DHT22;13414;44.534;18.700;2023-04-01T01:00:19;14.10;1.00
25512;DHT22;13414;44.534;18.700;2023-04-01T01:02:50;14.20;1.00
25512;DHT22;13414;44.534;18.700;2023-04-01T01:05:24;14.20;35.90
25512;DHT22;13414;44.534;18.700;2023-04-01T01:08:01;14.20;99.90
25512;DHT22;13414;44.534;18.700;2023-04-01T01:10:32;14.20;99.90
25512;DHT22;13414;44.534;18.700;2023-04-01T01:13:06;14.20;1.00
25512;DHT22;13414;44.534;18.700;2023-04-01T01:15:40;14.10;1.00
25512;DHT22;13414;44.534;18.700;2023-04-01T01:18:18;14.00;30.90
25512;DHT22;13414;44.534;18.700;2023-04-01T01:24:22;13.90;99.90
25512;DHT22;13414;44.534;18.700;2023-04-01T01:26:57;13.60;99.90
25512;DHT22;13414;44.534;18.700;2023-04-01T01:30:06;13.50;99.90
25512;DHT22;13414;44.534;18.700;2023-04-01T01:33:06;13.40;99.90
25512;DHT22;13414;44.534;18.700;2023-04-01T01:35:42;13.30;99.90
25512;DHT22;13414;44.534;18.700;2023-04-01T01:38:17;13.30;99.90
25512;DHT22;13414;44.534;18.700;2023-04-01T01:40:56;13.20;99.90
25512;DHT22;13414;44.534;18.700;2023-04-01T01:43:29;13.10;99.90
25512;DHT22;13414;44.534;18.700;2023-04-01T01:46:01;13.00;99.90
25512;DHT22;13414;44.534;18.700;2023-04-01T01:48:33;12.90;99.90
25512;DHT22;13414;44.534;18.700;2023-04-01T01:51:03;12.80;99.90
25512;DHT22;13414;44.534;18.700;2023-04-01T01:53:32;12.70;99.90
25512;DHT22;13414;44.534;18.700;2023-04-01T01:56:00;12.70;99.90
25512;DHT22;13414;44.534;18.700;2023-04-01T01:58:33;12.70;99.90
25512;DHT22;13414;44.534;18.700;2023-04-01T02:01:09;12.70;99.90
25512;DHT22;13414;44.534;18.700;2023-04-01T02:03:39;12.80;99.90
25512;DHT22;13414;44.534;18.700;2023-04-01T02:06:11;12.70;99.90
25512;DHT22;13414;44.534;18.700;2023-04-01T02:08:43;12.60;99.90
25512;DHT22;13414;44.534;18.700;2023-04-01T02:11:15;12.60;99.90
25512;DHT22;13414;44.534;18.700;2023-04-01T02:13:50;12.60;99.90
25512;DHT22;13414;44.534;18.700;2023-04-01T02:16:21;12.50;99.90
25512;DHT22;13414;44.534;18.700;2023-04-01T02:18:52;12.30;99.90
25512;DHT22;13414;44.534;18.700;2023-04-01T02:21:26;12.30;99.90
25512;DHT22;13414;44.534;18.700;2023-04-01T02:23:55;12.20;99.90
25512;DHT22;13414;44.534;18.700;2023-04-01T02:26:25;12.20;99.90
25512;DHT22;13414;44.534;18.700;2023-04-01T02:28:53;12.10;99.90
25512;DHT22;13414;44.534;18.700;2023-04-01T02:31:21;12.10;99.90
25512;DHT22;13414;44.534;18.700;2023-04-01T02:33:50;12.10;99.90
25512;DHT22;13414;44.534;18.700;2023-04-01T02:36:18;12.00;99.90
25512;DHT22;13414;44.534;18.700;2023-04-01T02:38:48;12.00;99.90
25512;DHT22;13414;44.534;18.700;2023-04-01T02:41:17;11.90;99.90
25512;DHT22;13414;44.534;18.700;2023-04-01T02:43:44;12.00;99.90
25512;DHT22;13414;44.534;18.700;2023-04-01T02:46:11;12.00;99.90
25512;DHT22;13414;44.534;18.700;2023-04-01T02:48:39;12.00;99.90
25512;DHT22;13414;44.534;18.700;2023-04-01T02:51:07;11.90;99.90
25512;DHT22;13414;44.534;18.700;2023-04-01T02:53:35;11.90;99.90
25512;DHT22;13414;44.534;18.700;2023-04-01T02:56:04;11.90;99.90
25512;DHT22;13414;44.534;18.700;2023-04-01T02:58:32;11.90;99.90
25512;DHT22;13414;44.534;18.700;2023-04-01T03:00:59;12.00;99.90
25512;DHT22;13414;44.534;18.700;2023-04-01T03:03:27;11.90;99.90
25512;DHT22;13414;44.534;18.700;2023-04-01T03:05:54;12.00;99.90
25512;DHT22;13414;44.534;18.700;2023-04-01T03:08:24;11.90;99.90
25512;DHT22;13414;44.534;18.700;2023-04-01T03:10:52;11.90;99.90
25512;DHT22;13414;44.534;18.700;2023-04-01T03:13:21;11.90;99.90
25512;DHT22;13414;44.534;18.700;2023-04-01T03:15:48;11.90;99.90
25512;DHT22;13414;44.534;18.700;2023-04-01T03:18:16;11.90;99.90
25512;DHT22;13414;44.534;18.700;2023-04-01T03:20:44;11.90;99.90
25512;DHT22;13414;44.534;18.700;2023-04-01T03:23:11;11.90;99.90
25512;DHT22;13414;44.534;18.700;2023-04-01T03:25:40;11.90;99.90
25512;DHT22;13414;44.534;18.700;2023-04-01T03:28:08;11.90;99.90
25512;DHT22;13414;44.534;18.700;2023-04-01T03:30:38;11.90;99.90
25512;DHT22;13414;44.534;18.700;2023-04-01T03:33:06;11.90;99.90
25512;DHT22;13414;44.534;18.700;2023-04-01T03:35:33;11.80;99.90
25512;DHT22;13414;44.534;18.700;2023-04-01T03:38:02;11.80;99.90
25512;DHT22;13414;44.534;18.700;2023-04-01T03:40:30;11.80;99.90
25512;DHT22;13414;44.534;18.700;2023-04-01T03:42:59;11.80;99.90
25512;DHT22;13414;44.534;18.700;2023-04-01T03:45:27;11.90;99.90
25512;DHT22;13414;44.534;18.700;2023-04-01T03:47:56;11.90;99.90
25512;DHT22;13414;44.534;18.700;2023-04-01T03:50:23;11.90;99.90
25512;DHT22;13414;44.534;18.700;2023-04-01T03:52:52;11.90;99.90
25512;DHT22;13414;44.534;18.700;2023-04-01T03:55:19;11.80;99.90
25512;DHT22;13414;44.534;18.700;2023-04-01T03:57:47;11.70;99.90
25512;DHT22;13414;44.534;18.700;2023-04-01T04:00:18;11.60;99.90
25512;DHT22;13414;44.534;18.700;2023-04-01T04:02:52;11.50;99.90
25512;DHT22;13414;44.534;18.700;2023-04-01T04:05:27;11.50;99.90
25512;DHT22;13414;44.534;18.700;2023-04-01T04:07:55;11.50;99.90
25512;DHT22;13414;44.534;18.700;2023-04-01T04:10:23;11.40;99.90
25512;DHT22;13414;44.534;18.700;2023-04-01T04:12:51;11.50;99.90
25512;DHT22;13414;44.534;18.700;2023-04-01T04:15:22;11.50;99.90
25512;DHT22;13414;44.534;18.700;2023-04-01T04:17:49;11.50;99.90
25512;DHT22;13414;44.534;18.700;2023-04-01T04:20:17;11.40;99.90
25512;DHT22;13414;44.534;18.700;2023-04-01T04:22:46;11.40;99.90
25512;DHT22;13414;44.534;18.700;2023-04-01T04:25:14;11.30;99.90
25512;DHT22;13414;44.534;18.700;2023-04-01T04:27:41;11.30;99.90
25512;DHT22;13414;44.534;18.700;2023-04-01T04:30:12;11.30;99.90
25512;DHT22;13414;44.534;18.700;2023-04-01T04:32:40;11.30;99.90
25512;DHT22;13414;44.534;18.700;2023-04-01T04:35:09;11.30;99.90
25512;DHT22;13414;44.534;18.700;2023-04-01T04:37:37;11.30;99.90
25512;DHT22;13414;44.534;18.700;2023-04-01T04:40:07;11.20;99.90
25512;DHT22;13414;44.534;18.700;2023-04-01T04:42:35;11.20;99.90
25512;DHT22;13414;44.534;18.700;2023-04-01T04:45:09;11.10;99.90
25512;DHT22;13414;44.534;18.700;2023-04-01T04:47:41;11.00;99.90
25512;DHT22;13414;44.534;18.700;2023-04-01T04:50:09;11.10;99.90
25512;DHT22;13414;44.534;18.700;2023-04-01T04:52:39;11.20;99.90
25512;DHT22;13414;44.534;18.700;2023-04-01T04:55:09;11.30;99.90
25512;DHT22;13414;44.534;18.700;2023-04-01T04:57:38;11.40;99.90
25512;DHT22;13414;44.534;18.700;2023-04-01T05:00:08;11.40;99.90
25512;DHT22;13414;44.534;18.700;2023-04-01T05:02:47;11.40;99.90
25512;DHT22;13414;44.534;18.700;2023-04-01T05:05:14;11.40;99.90
25512;DHT22;13414;44.534;18.700;2023-04-01T05:07:42;11.50;99.90
25512;DHT22;13414;44.534;18.700;2023-04-01T05:10:11;11.50;99.90
25512;DHT22;13414;44.534;18.700;2023-04-01T05:12:39;11.60;99.90
25512;DHT22;13414;44.534;18.700;2023-04-01T05:15:09;11.60;99.90
25512;DHT22;13414;44.534;18.700;2023-04-01T05:17:37;11.70;99.90
25512;DHT22;13414;44.534;18.700;2023-04-01T05:20:06;11.80;99.90
25512;DHT22;13414;44.534;18.700;2023-04-01T05:22:34;11.80;99.90
25512;DHT22;13414;44.534;18.700;2023-04-01T05:25:02;11.80;99.90
25512;DHT22;13414;44.534;18.700;2023-04-01T05:27:31;11.80;99.90
25512;DHT22;13414;44.534;18.700;2023-04-01T05:29:59;11.80;99.90
25512;DHT22;13414;44.534;18.700;2023-04-01T05:32:50;11.90;99.90
25512;DHT22;13414;44.534;18.700;2023-04-01T05:35:18;11.90;99.90
25512;DHT22;13414;44.534;18.700;2023-04-01T05:37:47;11.90;99.90
25512;DHT22;13414;44.534;18.700;2023-04-01T05:40:16;11.80;99.90
25512;DHT22;13414;44.534;18.700;2023-04-01T05:42:49;11.60;99.90
25512;DHT22;13414;44.534;18.700;2023-04-01T05:45:18;11.30;99.90
25512;DHT22;13414;44.534;18.700;2023-04-01T05:48:14;11.20;99.90
25512;DHT22;13414;44.534;18.700;2023-04-01T05:50:44;11.00;99.90
25512;DHT22;13414;44.534;18.700;2023-04-01T05:53:11;10.80;99.90
25512;DHT22;13414;44.534;18.700;2023-04-01T05:55:42;10.80;99.90
25512;DHT22;13414;44.534;18.700;2023-04-01T05:58:11;10.80;99.90
25512;DHT22;13414;44.534;18.700;2023-04-01T06:00:41;10.80;99.90
25512;DHT22;13414;44.534;18.700;2023-04-01T06:03:09;10.80;99.90
25512;DHT22;13414;44.534;18.700;2023-04-01T06:05:39;10.90;99.90
25512;DHT22;13414;44.534;18.700;2023-04-01T06:08:11;10.90;99.90
25512;DHT22;13414;44.534;18.700;2023-04-01T06:10:50;10.90;99.90
25512;DHT22;13414;44.534;18.700;2023-04-01T06:13:31;10.90;99.90
25512;DHT22;13414;44.534;18.700;2023-04-01T06:16:09;11.00;99.90
25512;DHT22;13414;44.534;18.700;2023-04-01T06:18:51;11.00;99.90
25512;DHT22;13414;44.534;18.700;2023-04-01T06:21:44;10.90;99.90
25512;DHT22;13414;44.534;18.700;2023-04-01T06:24:33;11.00;99.90
25512;DHT22;13414;44.534;18.700;2023-04-01T06:27:23;11.10;99.90
25512;DHT22;13414;44.534;18.700;2023-04-01T06:30:10;11.20;99.90
25512;DHT22;13414;44.534;18.700;2023-04-01T06:33:05;11.20;99.90
25512;DHT22;13414;44.534;18.700;2023-04-01T06:35:56;11.20;99.90
25512;DHT22;13414;44.534;18.700;2023-04-01T06:41:39;11.10;99.90
25512;DHT22;13414;44.534;18.700;2023-04-01T06:44:16;11.10;99.90
25512;DHT22;13414;44.534;18.700;2023-04-01T06:47:18;11.00;99.90
25512;DHT22;13414;44.534;18.700;2023-04-01T06:50:20;10.80;99.90
25512;DHT22;13414;44.534;18.700;2023-04-01T06:53:30;10.80;99.90
25512;DHT22;13414;44.534;18.700;2023-04-01T06:56:29;10.80;99.90
25512;DHT22;13414;44.534;18.700;2023-04-01T06:59:10;10.90;99.90
25512;DHT22;13414;44.534;18.700;2023-04-01T07:01:47;11.00;99.90
25512;DHT22;13414;44.534;18.700;2023-04-01T07:04:20;10.90;99.90
25512;DHT22;13414;44.534;18.700;2023-04-01T07:06:54;10.80;99.90
25512;DHT22;13414;44.534;18.700;2023-04-01T07:09:32;10.80;99.90
25512;DHT22;13414;44.534;18.700;2023-04-01T07:12:25;10.80;99.90
25512;DHT22;13414;44.534;18.700;2023-04-01T07:15:18;10.70;99.90
25512;DHT22;13414;44.534;18.700;2023-04-01T07:17:50;10.80;99.90
25512;DHT22;13414;44.534;18.700;2023-04-01T07:20:27;10.70;99.90
25512;DHT22;13414;44.534;18.700;2023-04-01T07:22:59;10.60;99.90
25512;DHT22;13414;44.534;18.700;2023-04-01T07:25:56;10.60;99.90
25512;DHT22;13414;44.534;18.700;2023-04-01T07:28:32;10.60;99.90
25512;DHT22;13414;44.534;18.700;2023-04-01T07:31:16;10.60;99.90
25512;DHT22;13414;44.534;18.700;2023-04-01T07:33:53;10.70;99.90
25512;DHT22;13414;44.534;18.700;2023-04-01T07:36:28;10.70;99.90
25512;DHT22;13414;44.534;18.700;2023-04-01T07:39:09;10.80;99.90
25512;DHT22;13414;44.534;18.700;2023-04-01T07:42:04;10.60;99.90
25512;DHT22;13414;44.534;18.700;2023-04-01T07:44:41;10.60;99.90
25512;DHT22;13414;44.534;18.700;2023-04-01T07:47:17;10.50;99.90
25512;DHT22;13414;44.534;18.700;2023-04-01T07:49:57;10.50;99.90
25512;DHT22;13414;44.534;18.700;2023-04-01T07:52:36;10.40;99.90
25512;DHT22;13414;44.534;18.700;2023-04-01T07:55:18;10.40;99.90
25512;DHT22;13414;44.534;18.700;2023-04-01T07:57:52;10.40;99.90
25512;DHT22;13414;44.534;18.700;2023-04-01T08:00:27;10.40;99.90
25512;DHT22;13414;44.534;18.700;2023-04-01T08:03:20;10.40;99.90
25512;DHT22;13414;44.534;18.700;2023-04-01T08:05:54;10.50;99.90
25512;DHT22;13414;44.534;18.700;2023-04-01T08:08:33;10.50;99.90
25512;DHT22;13414;44.534;18.700;2023-04-01T08:11:32;10.40;99.90
25512;DHT22;13414;44.534;18.700;2023-04-01T08:14:32;10.40;99.90
25512;DHT22;13414;44.534;18.700;2023-04-01T08:17:36;10.40;99.90
25512;DHT22;13414;44.534;18.700;2023-04-01T08:20:17;10.40;99.90
25512;DHT22;13414;44.534;18.700;2023-04-01T08:22:50;10.30;99.90
25512;DHT22;13414;44.534;18.700;2023-04-01T08:25:28;10.30;99.90
25512;DHT22;13414;44.534;18.700;2023-04-01T08:28:01;10.30;99.90
25512;DHT22;13414;44.534;18.700;2023-04-01T08:30:40;10.20;99.90
25512;DHT22;13414;44.534;18.700;2023-04-01T08:33:15;10.20;99.90
25512;DHT22;13414;44.534;18.700;2023-04-01T08:35:47;10.20;99.90
25512;DHT22;13414;44.534;18.700;2023-04-01T08:38:20;10.20;99.90
25512;DHT22;13414;44.534;18.700;2023-04-01T08:40:57;10.20;99.90
25512;DHT22;13414;44.534;18.700;2023-04-01T08:46:43;10.10;99.90
25512;DHT22;13414;44.534;18.700;2023-04-01T08:49:29;10.20;99.90
25512;DHT22;13414;44.534;18.700;2023-04-01T08:52:20;10.20;99.90
25512;DHT22;13414;44.534;18.700;2023-04-01T09:01:43;10.20;99.90
25512;DHT22;13414;44.534;18.700;2023-04-01T09:04:44;10.30;99.90
25512;DHT22;13414;44.534;18.700;2023-04-01T09:07:29;10.30;99.90
25512;DHT22;13414;44.534;18.700;2023-04-01T09:10:45;10.30;99.90
25512;DHT22;13414;44.534;18.700;2023-04-01T09:17:39;10.20;99.90
25512;DHT22;13414;44.534;18.700;2023-04-01T09:20:24;10.30;99.90
25512;DHT22;13414;44.534;18.700;2023-04-01T09:23:08;10.20;99.90
25512;DHT22;13414;44.534;18.700;2023-04-01T09:25:53;10.20;99.90
25512;DHT22;13414;44.534;18.700;2023-04-01T09:28:28;10.10;99.90
25512;DHT22;13414;44.534;18.700;2023-04-01T09:34:53;9.80;99.90
25512;DHT22;13414;44.534;18.700;2023-04-01T09:37:34;9.80;99.90
25512;DHT22;13414;44.534;18.700;2023-04-01T09:40:15;9.70;99.90
25512;DHT22;13414;44.534;18.700;2023-04-01T09:43:02;9.60;99.90
25512;DHT22;13414;44.534;18.700;2023-04-01T09:45:43;9.50;99.90
25512;DHT22;13414;44.534;18.700;2023-04-01T09:48:23;9.50;99.90
25512;DHT22;13414;44.534;18.700;2023-04-01T09:51:01;9.30;99.90
25512;DHT22;13414;44.534;18.700;2023-04-01T09:53:45;9.30;99.90
25512;DHT22;13414;44.534;18.700;2023-04-01T09:56:30;9.20;99.90
25512;DHT22;13414;44.534;18.700;2023-04-01T09:59:30;9.20;99.90
25512;DHT22;13414;44.534;18.700;2023-04-01T10:15:30;9.40;99.90
25512;DHT22;13414;44.534;18.700;2023-04-01T10:18:19;9.60;99.90
25512;DHT22;13414;44.534;18.700;2023-04-01T10:21:16;9.80;99.90
25512;DHT22;13414;44.534;18.700;2023-04-01T10:24:16;9.80;99.90
25512;DHT22;13414;44.534;18.700;2023-04-01T10:30:33;9.80;99.90
25512;DHT22;13414;44.534;18.700;2023-04-01T10:36:54;9.90;99.90
25512;DHT22;13414;44.534;18.700;2023-04-01T10:40:22;9.90;99.90
25512;DHT22;13414;44.534;18.700;2023-04-01T10:43:56;9.70;99.90
25512;DHT22;13414;44.534;18.700;2023-04-01T10:46:52;9.60;99.90
25512;DHT22;13414;44.534;18.700;2023-04-01T10:52:59;9.70;99.90
25512;DHT22;13414;44.534;18.700;2023-04-01T11:03:31;9.60;99.90
25512;DHT22;13414;44.534;18.700;2023-04-01T11:07:08;9.70;99.90
25512;DHT22;13414;44.534;18.700;2023-04-01T11:16:22;9.70;99.90
25512;DHT22;13414;44.534;18.700;2023-04-01T11:22:22;9.50;99.90
25512;DHT22;13414;44.534;18.700;2023-04-01T11:31:37;9.90;99.90
25512;DHT22;13414;44.534;18.700;2023-04-01T11:34:21;10.00;99.90
25512;DHT22;13414;44.534;18.700;2023-04-01T11:36:59;10.10;99.90
25512;DHT22;13414;44.534;18.700;2023-04-01T11:39:37;10.30;99.90
25512;DHT22;13414;44.534;18.700;2023-04-01T11:42:32;10.60;99.90
25512;DHT22;13414;44.534;18.700;2023-04-01T11:45:36;10.90;99.90
25512;DHT22;13414;44.534;18.700;2023-04-01T11:48:34;11.10;99.90
25512;DHT22;13414;44.534;18.700;2023-04-01T11:51:35;11.10;99.90
25512;DHT22;13414;44.534;18.700;2023-04-01T11:54:13;10.90;99.90
25512;DHT22;13414;44.534;18.700;2023-04-01T11:57:02;10.80;99.90
25512;DHT22;13414;44.534;18.700;2023-04-01T12:03:00;10.90;99.90
25512;DHT22;13414;44.534;18.700;2023-04-01T12:05:43;10.70;99.90
25512;DHT22;13414;44.534;18.700;2023-04-01T12:08:22;10.60;99.90
25512;DHT22;13414;44.534;18.700;2023-04-01T12:10:56;10.60;99.90
25512;DHT22;13414;44.534;18.700;2023-04-01T12:13:39;10.40;99.90
25512;DHT22;13414;44.534;18.700;2023-04-01T12:19:23;10.60;99.90
25512;DHT22;13414;44.534;18.700;2023-04-01T12:22:10;10.70;99.90
25512;DHT22;13414;44.534;18.700;2023-04-01T12:24:47;10.80;99.90
25512;DHT22;13414;44.534;18.700;2023-04-01T12:27:26;10.80;99.90
25512;DHT22;13414;44.534;18.700;2023-04-01T12:35:55;11.10;99.90
25512;DHT22;13414;44.534;18.700;2023-04-01T12:38:35;11.20;99.90
25512;DHT22;13414;44.534;18.700;2023-04-01T12:41:09;11.00;99.90
25512;DHT22;13414;44.534;18.700;2023-04-01T12:44:17;11.00;99.90
25512;DHT22;13414;44.534;18.700;2023-04-01T12:47:12;11.00;99.90
25512;DHT22;13414;44.534;18.700;2023-04-01T12:52:52;11.00;99.90
25512;DHT22;13414;44.534;18.700;2023-04-01T12:55:35;11.00;99.90
25512;DHT22;13414;44.534;18.700;2023-04-01T12:58:36;11.00;99.90
25512;DHT22;13414;44.534;18.700;2023-04-01T13:01:19;11.00;99.90
25512;DHT22;13414;44.534;18.700;2023-04-01T13:10:18;11.10;99.90
25512;DHT22;13414;44.534;18.700;2023-04-01T13:13:10;11.20;99.90
25512;DHT22;13414;44.534;18.700;2023-04-01T13:15:47;11.30;99.90
25512;DHT22;13414;44.534;18.700;2023-04-01T13:18:25;11.30;99.90
25512;DHT22;13414;44.534;18.700;2023-04-01T13:21:03;11.20;99.90
25512;DHT22;13414;44.534;18.700;2023-04-01T13:23:45;11.20;99.90
25512;DHT22;13414;44.534;18.700;2023-04-01T13:26:21;11.30;99.90
25512;DHT22;13414;44.534;18.700;2023-04-01T13:28:58;11.50;99.90
25512;DHT22;13414;44.534;18.700;2023-04-01T13:31:46;11.80;99.90
25512;DHT22;13414;44.534;18.700;2023-04-01T13:34:28;12.40;99.90
25512;DHT22;13414;44.534;18.700;2023-04-01T13:37:11;12.70;99.90
25512;DHT22;13414;44.534;18.700;2023-04-01T13:39:52;12.90;99.90
25512;DHT22;13414;44.534;18.700;2023-04-01T13:42:25;12.90;99.90
25512;DHT22;13414;44.534;18.700;2023-04-01T13:45:01;12.90;99.90
25512;DHT22;13414;44.534;18.700;2023-04-01T13:50:56;13.30;99.90
25512;DHT22;13414;44.534;18.700;2023-04-01T13:56:33;13.60;99.90
25512;DHT22;13414;44.534;18.700;2023-04-01T14:02:28;13.50;99.90
25512;DHT22;13414;44.534;18.700;2023-04-01T14:05:10;13.20;99.90
25512;DHT22;13414;44.534;18.700;2023-04-01T14:07:50;13.10;99.90
25512;DHT22;13414;44.534;18.700;2023-04-01T14:10:28;13.10;99.90
25512;DHT22;13414;44.534;18.700;2023-04-01T14:12:58;13.20;99.90
25512;DHT22;13414;44.534;18.700;2023-04-01T14:15:41;13.40;99.90
25512;DHT22;13414;44.534;18.700;2023-04-01T14:18:33;13.70;99.90
25512;DHT22;13414;44.534;18.700;2023-04-01T14:21:27;14.00;99.90
25512;DHT22;13414;44.534;18.700;2023-04-01T14:24:15;14.20;99.90
25512;DHT22;13414;44.534;18.700;2023-04-01T14:27:07;14.30;99.90
25512;DHT22;13414;44.534;18.700;2023-04-01T14:29:43;14.40;52.40
25512;DHT22;13414;44.534;18.700;2023-04-01T14:32:16;14.80;1.00
25512;DHT22;13414;44.534;18.700;2023-04-01T14:34:59;15.20;99.90
25512;DHT22;13414;44.534;18.700;2023-04-01T14:40:45;15.20;1.00
25512;DHT22;13414;44.534;18.700;2023-04-01T14:46:56;15.00;1.00
25512;DHT22;13414;44.534;18.700;2023-04-01T14:49:35;14.80;94.60
25512;DHT22;13414;44.534;18.700;2023-04-01T14:52:13;14.50;1.00
25512;DHT22;13414;44.534;18.700;2023-04-01T14:54:44;14.50;99.90
25512;DHT22;13414;44.534;18.700;2023-04-01T14:57:15;14.50;1.00
25512;DHT22;13414;44.534;18.700;2023-04-01T14:59:51;14.30;99.90
25512;DHT22;13414;44.534;18.700;2023-04-01T15:02:43;14.20;1.00
25512;DHT22;13414;44.534;18.700;2023-04-01T15:05:20;14.30;99.90
25512;DHT22;13414;44.534;18.700;2023-04-01T15:16:58;14.10;99.90
25512;DHT22;13414;44.534;18.700;2023-04-01T15:19:39;14.00;1.00
25512;DHT22;13414;44.534;18.700;2023-04-01T15:22:26;13.90;1.00
25512;DHT22;13414;44.534;18.700;2023-04-01T15:25:10;13.90;1.00
25512;DHT22;13414;44.534;18.700;2023-04-01T15:27:44;13.90;1.00
25512;DHT22;13414;44.534;18.700;2023-04-01T15:30:28;13.80;99.90
25512;DHT22;13414;44.534;18.700;2023-04-01T15:33:10;13.60;1.00
25512;DHT22;13414;44.534;18.700;2023-04-01T15:35:46;13.70;1.00
25512;DHT22;13414;44.534;18.700;2023-04-01T15:38:23;13.70;1.00
25512;DHT22;13414;44.534;18.700;2023-04-01T15:41:02;13.70;1.00
25512;DHT22;13414;44.534;18.700;2023-04-01T15:43:40;13.70;99.90
25512;DHT22;13414;44.534;18.700;2023-04-01T15:46:30;13.60;99.90
25512;DHT22;13414;44.534;18.700;2023-04-01T15:49:05;13.60;1.00
25512;DHT22;13414;44.534;18.700;2023-04-01T15:52:05;13.60;94.20
25512;DHT22;13414;44.534;18.700;2023-04-01T15:54:57;13.60;1.00
25512;DHT22;13414;44.534;18.700;2023-04-01T15:57:36;13.60;1.00
25512;DHT22;13414;44.534;18.700;2023-04-01T16:00:25;13.50;1.00
25512;DHT22;13414;44.534;18.700;2023-04-01T16:03:13;13.50;99.90
25512;DHT22;13414;44.534;18.700;2023-04-01T16:05:54;13.50;1.00
25512;DHT22;13414;44.534;18.700;2023-04-01T16:08:49;13.50;1.00
25512;DHT22;13414;44.534;18.700;2023-04-01T16:11:27;13.50;1.00
25512;DHT22;13414;44.534;18.700;2023-04-01T16:14:09;13.50;17.50
25512;DHT22;13414;44.534;18.700;2023-04-01T16:16:50;13.40;99.90
25512;DHT22;13414;44.534;18.700;2023-04-01T16:19:33;13.40;1.00
25512;DHT22;13414;44.534;18.700;2023-04-01T16:22:08;13.30;99.90
25512;DHT22;13414;44.534;18.700;2023-04-01T16:24:42;13.30;1.40
25512;DHT22;13414;44.534;18.700;2023-04-01T16:27:15;13.30;1.00
25512;DHT22;13414;44.534;18.700;2023-04-01T16:29:49;13.20;1.00
25512;DHT22;13414;44.534;18.700;2023-04-01T16:32:23;13.20;99.90
25512;DHT22;13414;44.534;18.700;2023-04-01T16:35:04;13.20;1.00
25512;DHT22;13414;44.534;18.700;2023-04-01T16:37:43;13.10;1.00
25512;DHT22;13414;44.534;18.700;2023-04-01T16:40:24;13.00;99.90
25512;DHT22;13414;44.534;18.700;2023-04-01T16:43:04;12.90;1.00
25512;DHT22;13414;44.534;18.700;2023-04-01T16:45:42;12.80;1.00
25512;DHT22;13414;44.534;18.700;2023-04-01T16:48:12;12.80;1.00
25512;DHT22;13414;44.534;18.700;2023-04-01T16:50:54;12.70;1.00
25512;DHT22;13414;44.534;18.700;2023-04-01T16:53:35;12.70;1.00
25512;DHT22;13414;44.534;18.700;2023-04-01T16:56:10;12.60;1.00
25512;DHT22;13414;44.534;18.700;2023-04-01T16:58:42;12.50;99.90
25512;DHT22;13414;44.534;18.700;2023-04-01T17:01:15;12.30;58.80
25512;DHT22;13414;44.534;18.700;2023-04-01T17:03:46;12.10;99.90
25512;DHT22;13414;44.534;18.700;2023-04-01T17:06:23;11.90;99.90
25512;DHT22;13414;44.534;18.700;2023-04-01T17:09:06;11.70;99.90
25512;DHT22;13414;44.534;18.700;2023-04-01T17:11:44;11.60;99.90
25512;DHT22;13414;44.534;18.700;2023-04-01T17:14:20;11.50;99.90
25512;DHT22;13414;44.534;18.700;2023-04-01T17:17:06;11.40;99.90
25512;DHT22;13414;44.534;18.700;2023-04-01T17:22:54;11.10;99.90
25512;DHT22;13414;44.534;18.700;2023-04-01T17:25:49;10.90;99.90
25512;DHT22;13414;44.534;18.700;2023-04-01T17:28:31;10.80;99.90
25512;DHT22;13414;44.534;18.700;2023-04-01T17:31:08;10.80;99.90
25512;DHT22;13414;44.534;18.700;2023-04-01T17:34:03;10.60;99.90
25512;DHT22;13414;44.534;18.700;2023-04-01T17:36:51;10.50;99.90
25512;DHT22;13414;44.534;18.700;2023-04-01T17:39:49;10.30;99.90
25512;DHT22;13414;44.534;18.700;2023-04-01T17:42:40;10.30;99.90
25512;DHT22;13414;44.534;18.700;2023-04-01T17:45:16;10.20;99.90
25512;DHT22;13414;44.534;18.700;2023-04-01T17:47:55;10.10;99.90
25512;DHT22;13414;44.534;18.700;2023-04-01T17:50:30;10.00;99.90
25512;DHT22;13414;44.534;18.700;2023-04-01T17:53:17;9.90;99.90
25512;DHT22;13414;44.534;18.700;2023-04-01T17:55:56;10.00;99.90
25512;DHT22;13414;44.534;18.700;2023-04-01T17:58:29;9.90;99.90
25512;DHT22;13414;44.534;18.700;2023-04-01T18:01:11;9.90;99.90
25512;DHT22;13414;44.534;18.700;2023-04-01T18:03:58;9.80;99.90
25512;DHT22;13414;44.534;18.700;2023-04-01T18:06:34;9.70;99.90
25512;DHT22;13414;44.534;18.700;2023-04-01T18:09:14;9.60;99.90
25512;DHT22;13414;44.534;18.700;2023-04-01T18:11:54;9.50;99.90
25512;DHT22;13414;44.534;18.700;2023-04-01T18:14:40;9.50;99.90
25512;DHT22;13414;44.534;18.700;2023-04-01T18:17:25;9.60;99.90
25512;DHT22;13414;44.534;18.700;2023-04-01T18:20:07;9.70;99.90
25512;DHT22;13414;44.534;18.700;2023-04-01T18:22:43;9.80;99.90
25512;DHT22;13414;44.534;18.700;2023-04-01T18:25:18;9.90;99.90
25512;DHT22;13414;44.534;18.700;2023-04-01T18:27:51;9.90;99.90
25512;DHT22;13414;44.534;18.700;2023-04-01T18:30:26;10.00;99.90